createdAt,value
2018-02-16T00:01:15.320Z,101859.06
2018-02-16T00:03:41.477Z,101861.69
2018-02-16T00:06:07.756Z,101861.56
2018-02-16T00:08:33.946Z,101866.63
2018-02-16T00:11:00.158Z,101867.76
2018-02-16T00:13:26.369Z,101869.02
2018-02-16T00:15:52.510Z,101866.76
2018-02-16T00:18:18.719Z,101865.96
2018-02-16T00:20:44.935Z,101872.92
2018-02-16T00:23:11.077Z,101875.47
2018-02-16T00:25:37.302Z,101875.77
2018-02-16T00:28:03.543Z,101882.65
2018-02-16T00:30:29.695Z,101882.86
2018-02-16T00:32:55.870Z,101889.56
2018-02-16T00:35:22.012Z,101892.98
2018-02-16T00:37:48.159Z,101902.98
2018-02-16T00:40:14.404Z,101901.23
2018-02-16T00:42:40.578Z,101909.27
2018-02-16T00:45:06.730Z,101907.34
2018-02-16T00:47:32.884Z,101911.53
2018-02-16T00:49:59.112Z,101913.08
2018-02-16T00:52:25.350Z,101910.64
2018-02-16T00:54:51.481Z,101925.54
2018-02-16T00:57:17.659Z,101915.27
2018-02-16T00:59:43.949Z,101925.47
2018-02-16T01:02:10.038Z,101921.32
2018-02-16T01:04:36.185Z,101929.38
2018-02-16T01:07:02.384Z,101928.71
2018-02-16T01:09:28.562Z,101925.92
2018-02-16T01:11:54.724Z,101930.05
2018-02-16T01:14:20.926Z,101928.37
2018-02-16T01:16:47.086Z,101932.94
2018-02-16T01:19:13.295Z,101933.47
2018-02-16T01:21:39.501Z,101934.95
2018-02-16T01:24:05.644Z,101936.52
2018-02-16T01:26:31.811Z,101941.10
2018-02-16T01:28:58.030Z,101944.42
2018-02-16T01:31:24.222Z,101945.78
2018-02-16T01:33:50.368Z,101958.70
2018-02-16T01:36:16.548Z,101964.78
2018-02-16T01:38:42.760Z,101963.13
2018-02-16T01:41:08.933Z,101959.23
2018-02-16T01:43:35.070Z,101967.86
2018-02-16T01:46:01.259Z,101973.88
2018-02-16T01:48:27.397Z,101974.75
2018-02-16T01:50:53.601Z,101982.64
2018-02-16T01:53:19.811Z,101978.35
2018-02-16T01:55:45.984Z,101981.17
2018-02-16T01:58:12.120Z,101983.63
2018-02-16T02:00:38.319Z,101985.24
2018-02-16T02:03:04.467Z,101992.54
2018-02-16T02:05:30.629Z,102001.41
2018-02-16T02:07:56.824Z,102003.77
2018-02-16T02:10:23.174Z,101995.79
2018-02-16T02:12:49.329Z,101994.41
2018-02-16T02:15:15.485Z,101991.11
2018-02-16T02:17:41.662Z,101998.58
2018-02-16T02:20:07.904Z,102002.55
2018-02-16T02:22:34.079Z,101999.94
2018-02-16T02:25:00.222Z,101997.55
2018-02-16T02:27:26.422Z,102000.28
2018-02-16T02:29:52.639Z,102001.94
2018-02-16T02:32:18.835Z,101999.40
2018-02-16T02:34:45.030Z,102001.21
2018-02-16T02:37:11.151Z,101999.61
2018-02-16T02:39:37.380Z,102008.69
2018-02-16T02:42:03.588Z,102017.13
2018-02-16T02:44:29.775Z,102012.16
2018-02-16T02:46:55.955Z,102010.86
2018-02-16T02:49:22.144Z,102014.39
2018-02-16T02:51:48.367Z,102011.61
2018-02-16T02:54:14.503Z,102017.05
2018-02-16T02:56:40.649Z,102006.26
2018-02-16T02:59:06.821Z,102007.05
2018-02-16T03:01:33.092Z,102009.61
2018-02-16T03:03:59.273Z,102013.88
2018-02-16T03:06:32.431Z,102019.56
2018-02-16T03:08:58.662Z,102020.92
2018-02-16T03:11:24.976Z,102018.75
2018-02-16T03:13:51.164Z,102030.48
2018-02-16T03:16:17.308Z,102033.56
2018-02-16T03:18:43.436Z,102035.32
2018-02-16T03:21:09.610Z,102038.73
2018-02-16T03:23:35.699Z,102044.00
2018-02-16T03:26:01.813Z,102049.52
2018-02-16T03:28:27.955Z,102043.81
2018-02-16T03:30:54.092Z,102050.34
2018-02-16T03:33:20.195Z,102054.18
2018-02-16T03:35:46.346Z,102062.05
2018-02-16T03:38:12.520Z,102068.00
2018-02-16T03:40:38.676Z,102065.23
2018-02-16T03:43:04.792Z,102065.59
2018-02-16T03:45:30.912Z,102076.45
2018-02-16T03:47:57.034Z,102081.13
2018-02-16T03:50:23.206Z,102085.27
2018-02-16T03:52:49.337Z,102092.13
2018-02-16T03:55:15.439Z,102095.53
2018-02-16T03:57:41.567Z,102098.98
2018-02-16T04:00:07.789Z,102095.98
2018-02-16T04:02:33.890Z,102094.63
2018-02-16T04:05:00.005Z,102098.30
2018-02-16T04:07:26.122Z,102100.97
2018-02-16T04:09:52.262Z,102100.97
2018-02-16T04:12:18.398Z,102104.80
2018-02-16T04:14:44.507Z,102109.05
2018-02-16T04:17:10.618Z,102109.51
2018-02-16T04:19:36.929Z,102111.59
2018-02-16T04:22:03.099Z,102120.33
2018-02-16T04:24:29.220Z,102122.80
2018-02-16T04:26:55.323Z,102125.33
2018-02-16T04:29:21.457Z,102124.94
2018-02-16T04:31:47.605Z,102129.16
2018-02-16T04:34:13.719Z,102130.89
2018-02-16T04:36:39.811Z,102129.55
2018-02-16T04:39:05.993Z,102136.50
2018-02-16T04:41:32.143Z,102126.82
2018-02-16T04:43:58.238Z,102133.22
2018-02-16T04:46:24.363Z,102136.58
2018-02-16T04:48:50.497Z,102131.31
2018-02-16T04:51:16.642Z,102130.66
2018-02-16T04:53:42.730Z,102130.86
2018-02-16T04:56:08.854Z,102141.23
2018-02-16T04:58:35.005Z,102143.14
2018-02-16T05:01:01.172Z,102150.16
2018-02-16T05:03:27.302Z,102158.36
2018-02-16T05:05:53.394Z,102164.76
2018-02-16T05:08:19.559Z,102159.17
2018-02-16T05:10:45.741Z,102161.06
2018-02-16T05:13:11.839Z,102157.94
2018-02-16T05:15:37.948Z,102163.49
2018-02-16T05:18:04.083Z,102163.98
2018-02-16T05:20:30.240Z,102166.38
2018-02-16T05:22:56.376Z,102167.78
2018-02-16T05:25:22.562Z,102167.88
2018-02-16T05:27:48.681Z,102177.30
2018-02-16T05:30:14.858Z,102176.84
2018-02-16T05:32:41.066Z,102178.95
2018-02-16T05:35:07.155Z,102187.17
2018-02-16T05:37:33.327Z,102188.33
2018-02-16T05:39:59.408Z,102185.46
2018-02-16T05:42:25.589Z,102186.63
2018-02-16T05:44:51.687Z,102192.49
2018-02-16T05:47:17.800Z,102194.91
2018-02-16T05:49:43.947Z,102201.17
2018-02-16T05:52:10.095Z,102203.09
2018-02-16T05:54:36.213Z,102210.51
2018-02-16T05:57:02.348Z,102214.19
2018-02-16T05:59:28.460Z,102213.58
2018-02-16T06:01:54.628Z,102213.95
2018-02-16T06:04:20.810Z,102211.20
2018-02-16T06:06:46.921Z,102216.47
2018-02-16T06:09:13.065Z,102221.30
2018-02-16T06:11:39.232Z,102220.05
2018-02-16T06:14:05.318Z,102219.70
2018-02-16T06:16:31.428Z,102229.28
2018-02-16T06:18:57.551Z,102232.00
2018-02-16T06:21:23.708Z,102242.19
2018-02-16T06:23:49.825Z,102242.52
2018-02-16T06:26:15.963Z,102241.08
2018-02-16T06:28:42.060Z,102243.94
2018-02-16T06:31:08.219Z,102251.26
2018-02-16T06:33:34.348Z,102246.75
2018-02-16T06:36:00.450Z,102246.11
2018-02-16T06:38:26.609Z,102252.85
2018-02-16T06:40:52.763Z,102255.11
2018-02-16T06:43:18.891Z,102261.55
2018-02-16T06:45:45.022Z,102261.47
2018-02-16T06:48:11.154Z,102259.59
2018-02-16T06:50:37.341Z,102257.27
2018-02-16T06:53:03.448Z,102265.05
2018-02-16T06:55:29.610Z,102270.15
2018-02-16T06:57:55.730Z,102267.94
2018-02-16T07:00:21.857Z,102277.66
2018-02-16T07:02:48.016Z,102281.92
2018-02-16T07:05:14.159Z,102283.39
2018-02-16T07:07:40.338Z,102293.64
2018-02-16T07:10:06.476Z,102293.52
2018-02-16T07:12:32.630Z,102290.70
2018-02-16T07:14:58.747Z,102300.36
2018-02-16T07:17:24.938Z,102295.80
2018-02-16T07:19:51.037Z,102297.69
2018-02-16T07:22:17.191Z,102307.49
2018-02-16T07:24:43.385Z,102307.01
2018-02-16T07:27:09.537Z,102309.16
2018-02-16T07:29:35.652Z,102309.77
2018-02-16T07:32:01.831Z,102311.18
2018-02-16T07:34:27.947Z,102311.30
2018-02-16T07:36:54.081Z,102319.54
2018-02-16T07:39:20.256Z,102325.67
2018-02-16T07:41:46.423Z,102327.52
2018-02-16T07:44:12.567Z,102338.80
2018-02-16T07:46:38.691Z,102348.30
2018-02-16T07:49:04.973Z,102347.92
2018-02-16T07:51:31.250Z,102353.15
2018-02-16T07:53:57.364Z,102357.69
2018-02-16T07:56:23.499Z,102357.16
2018-02-16T07:58:49.652Z,102359.73
2018-02-16T08:01:15.821Z,102356.22
2018-02-16T08:03:41.929Z,102362.98
2018-02-16T08:06:08.130Z,102364.81
2018-02-16T08:08:34.297Z,102378.97
2018-02-16T08:11:00.480Z,102388.55
2018-02-16T08:13:26.656Z,102387.82
2018-02-16T08:15:52.776Z,102390.41
2018-02-16T08:18:18.875Z,102396.44
2018-02-16T08:20:44.997Z,102401.51
2018-02-16T08:23:11.158Z,102408.83
2018-02-16T08:25:37.296Z,102413.55
2018-02-16T08:28:03.430Z,102418.00
2018-02-16T08:30:29.530Z,102412.29
2018-02-16T08:32:55.688Z,102413.92
2018-02-16T08:35:21.820Z,102416.91
2018-02-16T08:37:47.975Z,102417.84
2018-02-16T08:40:14.101Z,102417.07
2018-02-16T08:42:40.257Z,102421.67
2018-02-16T08:45:06.376Z,102423.57
2018-02-16T08:47:32.516Z,102426.98
2018-02-16T08:49:58.639Z,102425.77
2018-02-16T08:52:24.830Z,102416.29
2018-02-16T08:54:50.943Z,102416.27
2018-02-16T08:57:17.070Z,102418.86
2018-02-16T08:59:43.155Z,102413.67
2018-02-16T09:02:09.377Z,102415.80
2018-02-16T09:04:35.503Z,102414.91
2018-02-16T09:07:01.617Z,102420.27
2018-02-16T09:09:27.786Z,102427.09
2018-02-16T09:11:53.966Z,102424.29
2018-02-16T09:14:20.069Z,102423.09
2018-02-16T09:16:46.196Z,102423.88
2018-02-16T09:19:14.199Z,102425.34
2018-02-16T09:21:40.353Z,102427.71
2018-02-16T09:24:06.503Z,102432.00
2018-02-16T09:26:32.595Z,102437.45
2018-02-16T09:28:58.731Z,102439.22
2018-02-16T09:31:24.884Z,102440.74
2018-02-16T09:33:51.013Z,102446.92
2018-02-16T09:36:17.861Z,102448.13
2018-02-16T09:38:47.465Z,102451.05
2018-02-16T09:41:13.564Z,102454.11
2018-02-16T09:43:39.701Z,102460.52
2018-02-16T09:46:05.833Z,102460.98
2018-02-16T09:48:31.942Z,102459.59
2018-02-16T09:50:58.114Z,102457.99
2018-02-16T09:53:24.305Z,102459.42
2018-02-16T09:55:50.393Z,102466.32
2018-02-16T09:58:16.522Z,102463.72
2018-02-16T10:00:42.624Z,102478.14
2018-02-16T10:03:08.911Z,102478.36
2018-02-16T10:05:35.027Z,102484.07
2018-02-16T10:08:01.178Z,102480.63
2018-02-16T10:10:27.280Z,102485.64
2018-02-16T10:12:53.462Z,102485.91
2018-02-16T10:15:19.564Z,102486.86
2018-02-16T10:17:45.656Z,102489.05
2018-02-16T10:22:44.739Z,102496.05
2018-02-16T10:25:10.851Z,102495.77
2018-02-16T10:27:36.952Z,102490.77
2018-02-16T10:30:03.157Z,102496.80
2018-02-16T10:32:29.294Z,102499.20
2018-02-16T10:34:55.388Z,102495.42
2018-02-16T10:37:21.515Z,102499.45
2018-02-16T10:39:47.695Z,102491.30
2018-02-16T10:42:13.852Z,102501.03
2018-02-16T10:44:39.981Z,102494.39
2018-02-16T10:47:06.092Z,102504.67
2018-02-16T10:49:32.202Z,102499.92
2018-02-16T10:51:58.357Z,102502.94
2018-02-16T10:54:24.519Z,102501.23
2018-02-16T10:56:50.610Z,102495.56
2018-02-16T10:59:16.721Z,102496.66
2018-02-16T11:01:42.925Z,102500.56
2018-02-16T11:04:14.967Z,102500.11
2018-02-16T11:06:47.069Z,102496.92
2018-02-16T11:09:22.074Z,102497.84
2018-02-16T11:11:48.264Z,102506.30
2018-02-16T11:14:14.407Z,102507.38
2018-02-16T11:16:40.498Z,102510.52
2018-02-16T11:19:06.596Z,102508.33
2018-02-16T11:21:32.720Z,102502.64
2018-02-16T11:23:58.834Z,102501.45
2018-02-16T11:26:24.942Z,102492.56
2018-02-16T11:28:51.079Z,102497.38
2018-02-16T11:31:17.177Z,102508.40
2018-02-16T11:33:43.336Z,102501.80
2018-02-16T11:36:09.467Z,102510.06
2018-02-16T11:38:35.659Z,102517.36
2018-02-16T11:41:01.778Z,102513.54
2018-02-16T11:43:27.950Z,102514.11
2018-02-16T11:45:54.113Z,102514.25
2018-02-16T11:48:20.226Z,102515.41
2018-02-16T11:50:46.405Z,102519.42
2018-02-16T11:53:12.562Z,102513.88
2018-02-16T11:55:38.742Z,102514.27
2018-02-16T11:58:04.865Z,102513.48
2018-02-16T12:00:30.978Z,102515.98
2018-02-16T12:02:57.196Z,102513.25
2018-02-16T12:05:23.291Z,102513.94
2018-02-16T12:07:49.462Z,102513.70
2018-02-16T12:10:15.685Z,102516.16
2018-02-16T12:12:41.906Z,102513.94
2018-02-16T12:15:08.219Z,102506.66
2018-02-16T12:17:34.305Z,102509.56
2018-02-16T12:20:00.439Z,102510.12
2018-02-16T12:22:26.652Z,102507.48
2018-02-16T12:24:52.762Z,102508.44
2018-02-16T12:27:18.876Z,102508.55
2018-02-16T12:29:44.992Z,102505.55
2018-02-16T12:32:11.096Z,102509.27
2018-02-16T12:34:37.292Z,102505.27
2018-02-16T12:37:03.414Z,102506.22
2018-02-16T12:39:29.624Z,102500.31
2018-02-16T12:41:55.745Z,102503.86
2018-02-16T12:44:21.948Z,102490.61
2018-02-16T12:46:48.052Z,102493.17
2018-02-16T12:49:14.145Z,102479.03
2018-02-16T12:51:41.414Z,102487.44
2018-02-16T12:54:07.658Z,102491.06
2018-02-16T12:56:33.812Z,102487.45
2018-02-16T12:58:59.982Z,102482.86
2018-02-16T13:01:26.192Z,102486.70
2018-02-16T13:03:52.459Z,102481.84
2018-02-16T13:06:18.610Z,102483.43
2018-02-16T13:08:44.875Z,102482.94
2018-02-16T13:11:11.136Z,102482.47
2018-02-16T13:13:37.304Z,102477.61
2018-02-16T13:16:03.535Z,102481.16
2018-02-16T13:18:29.748Z,102480.16
2018-02-16T13:20:55.938Z,102472.19
2018-02-16T13:23:22.186Z,102470.27
2018-02-16T13:25:48.412Z,102475.82
2018-02-16T13:28:14.580Z,102474.28
2018-02-16T13:30:40.843Z,102470.31
2018-02-16T13:33:07.064Z,102468.66
2018-02-16T13:35:33.222Z,102453.66
2018-02-16T13:37:59.457Z,102458.98
2018-02-16T13:40:25.615Z,102450.61
2018-02-16T13:42:51.892Z,102454.52
2018-02-16T13:45:18.126Z,102452.54
2018-02-16T13:47:45.072Z,102456.00
2018-02-16T13:50:11.645Z,102458.14
2018-02-16T13:52:37.856Z,102454.33
2018-02-16T13:55:04.042Z,102446.50
2018-02-16T13:57:30.249Z,102453.27
2018-02-16T13:59:56.473Z,102446.06
2018-02-16T14:02:22.651Z,102444.23
2018-02-16T14:04:48.899Z,102440.84
2018-02-16T14:07:15.076Z,102440.56
2018-02-16T14:09:41.288Z,102441.70
2018-02-16T14:12:07.542Z,102444.91
2018-02-16T14:14:33.744Z,102446.17
2018-02-16T14:16:59.918Z,102447.84
2018-02-16T14:19:26.051Z,102445.34
2018-02-16T14:21:52.230Z,102436.72
2018-02-16T14:24:18.571Z,102440.47
2018-02-16T14:26:44.724Z,102433.24
2018-02-16T14:29:10.943Z,102436.38
2018-02-16T14:31:37.091Z,102439.42
2018-02-16T14:34:03.286Z,102437.12
2018-02-16T14:36:29.577Z,102440.31
2018-02-16T14:38:55.765Z,102438.28
2018-02-16T14:41:21.931Z,102439.02
2018-02-16T14:43:48.171Z,102438.36
2018-02-16T14:46:14.245Z,102444.39
2018-02-16T14:48:40.353Z,102444.80
2018-02-16T14:51:06.670Z,102443.52
2018-02-16T14:53:32.954Z,102444.70
2018-02-16T14:55:59.041Z,102443.70
2018-02-16T14:58:25.146Z,102438.59
2018-02-16T15:00:51.261Z,102429.76
2018-02-16T15:03:17.425Z,102423.06
2018-02-16T15:05:43.509Z,102415.63
2018-02-16T15:08:09.669Z,102422.23
2018-02-16T15:10:35.769Z,102412.87
2018-02-16T15:13:01.864Z,102411.02
2018-02-16T15:15:28.155Z,102421.08
2018-02-16T15:17:54.257Z,102420.91
2018-02-16T15:20:20.352Z,102415.58
2018-02-16T15:22:46.522Z,102420.63
2018-02-16T15:25:12.655Z,102419.09
2018-02-16T15:27:38.760Z,102419.23
2018-02-16T15:30:04.879Z,102420.84
2018-02-16T15:32:30.993Z,102422.55
2018-02-16T15:34:57.147Z,102422.93
2018-02-16T15:37:23.264Z,102418.39
2018-02-16T15:39:49.615Z,102425.73
2018-02-16T15:42:15.717Z,102424.81
2018-02-16T15:44:41.897Z,102420.70
2018-02-16T15:47:09.582Z,102416.68
2018-02-16T15:49:35.827Z,102419.65
2018-02-16T15:52:02.038Z,102411.99
2018-02-16T15:54:28.285Z,102403.90
2018-02-16T15:56:54.477Z,102410.25
2018-02-16T15:59:20.708Z,102409.66
2018-02-16T16:01:46.859Z,102407.75
2018-02-16T16:04:13.098Z,102396.69
2018-02-16T16:06:39.272Z,102393.82
2018-02-16T16:09:05.493Z,102390.53
2018-02-16T16:11:31.664Z,102396.02
2018-02-16T16:13:57.880Z,102395.44
2018-02-16T16:16:24.134Z,102393.94
2018-02-16T16:18:50.352Z,102393.26
2018-02-16T16:21:16.490Z,102392.48
2018-02-16T16:23:42.716Z,102384.28
2018-02-16T16:26:08.913Z,102382.92
2018-02-16T16:28:35.115Z,102377.34
2018-02-16T16:31:01.311Z,102374.38
2018-02-16T16:33:27.496Z,102363.01
2018-02-16T16:35:53.637Z,102364.28
2018-02-16T16:38:20.004Z,102365.57
2018-02-16T16:40:46.267Z,102376.81
2018-02-16T16:43:12.466Z,102376.27
2018-02-16T16:45:38.664Z,102391.45
2018-02-16T16:48:04.757Z,102399.73
2018-02-16T16:50:30.906Z,102405.02
2018-02-16T16:52:57.044Z,102405.50
2018-02-16T16:55:23.210Z,102402.83
2018-02-16T16:57:49.316Z,102404.22
2018-02-16T17:00:15.444Z,102399.42
2018-02-16T17:02:41.594Z,102398.52
2018-02-16T17:05:07.745Z,102393.28
2018-02-16T17:07:33.867Z,102394.10
2018-02-16T17:10:00.051Z,102400.27
2018-02-16T17:12:26.174Z,102402.49
2018-02-16T17:14:52.331Z,102413.80
2018-02-16T17:17:18.504Z,102413.29
2018-02-16T17:19:44.644Z,102420.72
2018-02-16T17:22:10.757Z,102432.16
2018-02-16T17:24:36.929Z,102430.88
2018-02-16T17:27:03.043Z,102444.00
2018-02-16T17:29:29.191Z,102450.56
2018-02-16T17:31:55.317Z,102447.64
2018-02-16T17:34:21.500Z,102458.17
2018-02-16T17:36:47.662Z,102468.30
2018-02-16T17:39:13.876Z,102472.87
2018-02-16T17:41:40.024Z,102474.63
2018-02-16T17:44:06.219Z,102473.45
2018-02-16T17:46:32.342Z,102469.38
2018-02-16T17:48:58.510Z,102465.98
2018-02-16T17:51:24.657Z,102467.31
2018-02-16T17:53:50.818Z,102462.64
2018-02-16T17:56:16.991Z,102455.59
2018-02-16T17:58:43.100Z,102448.81
2018-02-16T18:01:09.278Z,102446.39
2018-02-16T18:03:35.435Z,102435.32
2018-02-16T18:06:01.590Z,102426.60
2018-02-16T18:08:27.752Z,102424.73
2018-02-16T18:10:53.875Z,102423.34
2018-02-16T18:13:20.033Z,102428.38
2018-02-16T18:15:46.174Z,102426.83
2018-02-16T18:18:12.335Z,102433.13
2018-02-16T18:20:38.452Z,102447.52
2018-02-16T18:23:04.608Z,102446.28
2018-02-16T18:25:30.746Z,102446.04
2018-02-16T18:27:56.893Z,102449.59
2018-02-16T18:30:23.051Z,102437.53
2018-02-16T18:32:49.224Z,102432.14
2018-02-16T18:35:15.360Z,102431.86
2018-02-16T18:37:41.538Z,102423.35
2018-02-16T18:40:07.719Z,102424.66
2018-02-16T18:42:33.908Z,102430.20
2018-02-16T18:45:00.011Z,102431.81
2018-02-16T18:47:33.130Z,102437.67
2018-02-16T18:49:59.281Z,102436.55
2018-02-16T18:52:25.475Z,102439.42
2018-02-16T18:54:51.590Z,102438.70
2018-02-16T18:57:17.785Z,102429.28
2018-02-16T18:59:43.953Z,102444.34
2018-02-16T19:02:10.168Z,102436.81
2018-02-16T19:04:36.362Z,102429.33
2018-02-16T19:07:02.662Z,102424.97
2018-02-16T19:09:28.891Z,102424.97
2018-02-16T19:11:55.051Z,102431.09
2018-02-16T19:14:21.250Z,102425.20
2018-02-16T19:16:47.470Z,102425.48
2018-02-16T19:19:13.696Z,102419.28
2018-02-16T19:21:39.908Z,102419.50
2018-02-16T19:24:06.396Z,102415.81
2018-02-16T19:26:32.616Z,102416.34
2018-02-16T19:28:58.923Z,102412.91
2018-02-16T19:31:25.380Z,102417.44
2018-02-16T19:33:51.611Z,102416.22
2018-02-16T19:36:17.790Z,102412.14
2018-02-16T19:38:44.012Z,102419.75
2018-02-16T19:41:10.321Z,102416.55
2018-02-16T19:43:36.674Z,102411.98
2018-02-16T19:46:02.942Z,102414.33
2018-02-16T19:48:29.150Z,102415.02
2018-02-16T19:50:55.415Z,102415.26
2018-02-16T19:53:21.676Z,102406.36
2018-02-16T19:55:47.856Z,102410.46
2018-02-16T19:58:14.017Z,102397.34
2018-02-16T20:00:40.192Z,102396.48
2018-02-16T20:03:06.455Z,102385.42
2018-02-16T20:05:32.673Z,102375.52
2018-02-16T20:07:58.874Z,102375.13
2018-02-16T20:10:26.035Z,102368.64
2018-02-16T20:12:52.261Z,102373.73
2018-02-16T20:15:18.475Z,102363.53
2018-02-16T20:17:45.017Z,102361.14
2018-02-16T20:20:11.190Z,102353.23
2018-02-16T20:22:37.380Z,102347.05
2018-02-16T20:25:03.657Z,102349.89
2018-02-16T20:27:29.924Z,102360.07
2018-02-16T20:29:56.144Z,102350.45
2018-02-16T20:32:22.416Z,102339.98
2018-02-16T20:34:48.735Z,102339.41
2018-02-16T20:37:14.947Z,102333.58
2018-02-16T20:39:41.192Z,102332.59
2018-02-16T20:42:07.666Z,102331.19
2018-02-16T20:44:33.910Z,102341.85
2018-02-16T20:47:00.132Z,102348.31
2018-02-16T20:49:26.281Z,102351.18
2018-02-16T20:51:52.582Z,102349.80
2018-02-16T20:54:18.777Z,102341.41
2018-02-16T20:56:44.910Z,102338.43
2018-02-16T20:59:11.119Z,102339.77
2018-02-16T21:01:37.289Z,102333.31
2018-02-16T21:04:03.525Z,102343.66
2018-02-16T21:06:29.783Z,102346.67
2018-02-16T21:08:56.056Z,102336.22
2018-02-16T21:11:22.235Z,102330.37
2018-02-16T21:13:48.490Z,102330.29
2018-02-16T21:16:14.706Z,102320.92
2018-02-16T21:18:40.936Z,102319.06
2018-02-16T21:21:07.143Z,102325.33
2018-02-16T21:23:33.370Z,102323.43
2018-02-16T21:25:59.590Z,102329.28
2018-02-16T21:28:25.815Z,102328.25
2018-02-16T21:30:51.956Z,102325.20
2018-02-16T21:33:18.175Z,102323.79
2018-02-16T21:35:44.444Z,102324.98
2018-02-16T21:38:10.670Z,102326.20
2018-02-16T21:40:36.826Z,102327.77
2018-02-16T21:43:03.042Z,102324.19
2018-02-16T21:45:29.316Z,102322.70
2018-02-16T21:47:55.532Z,102317.44
2018-02-16T21:50:21.726Z,102313.92
2018-02-16T21:52:47.925Z,102312.17
2018-02-16T21:55:14.148Z,102314.27
2018-02-16T21:57:40.354Z,102312.09
2018-02-16T22:00:06.585Z,102318.66
2018-02-16T22:02:32.780Z,102308.73
2018-02-16T22:04:59.052Z,102304.08
2018-02-16T22:07:25.284Z,102314.87
2018-02-16T22:09:51.500Z,102314.45
2018-02-16T22:12:17.705Z,102316.36
2018-02-16T22:14:43.890Z,102315.98
2018-02-16T22:17:10.207Z,102310.41
2018-02-16T22:19:36.362Z,102305.47
2018-02-16T22:22:02.580Z,102297.97
2018-02-16T22:24:28.787Z,102286.44
2018-02-16T22:26:55.011Z,102291.20
2018-02-16T22:29:21.179Z,102289.48
2018-02-16T22:31:47.370Z,102276.55
2018-02-16T22:34:13.570Z,102270.44
2018-02-16T22:36:39.782Z,102263.98
2018-02-16T22:39:06.009Z,102257.48
2018-02-16T22:41:32.186Z,102257.41
2018-02-16T22:43:58.360Z,102261.27
2018-02-16T22:46:24.607Z,102253.45
2018-02-16T22:48:50.792Z,102258.38
2018-02-16T22:51:17.007Z,102256.28
2018-02-16T22:53:43.182Z,102259.34
2018-02-16T22:56:09.420Z,102253.55
2018-02-16T22:58:35.587Z,102247.61
2018-02-16T23:01:01.801Z,102250.37
2018-02-16T23:03:27.964Z,102246.11
2018-02-16T23:05:54.210Z,102244.77
2018-02-16T23:08:20.405Z,102245.67
2018-02-16T23:10:46.625Z,102244.66
2018-02-16T23:13:12.844Z,102248.42
2018-02-16T23:15:39.084Z,102248.33
2018-02-16T23:18:05.253Z,102254.82
2018-02-16T23:20:31.416Z,102246.36
2018-02-16T23:22:57.640Z,102241.38
2018-02-16T23:25:23.949Z,102246.69
2018-02-16T23:27:50.110Z,102246.91
2018-02-16T23:30:16.203Z,102237.11
2018-02-16T23:32:42.408Z,102243.47
2018-02-16T23:35:08.584Z,102232.48
2018-02-16T23:37:34.770Z,102228.94
2018-02-16T23:40:01.058Z,102229.56
2018-02-16T23:42:27.180Z,102224.66
2018-02-16T23:44:53.326Z,102217.59
2018-02-16T23:47:19.554Z,102219.14
2018-02-16T23:49:45.735Z,102210.51
2018-02-16T23:52:11.966Z,102199.10
2018-02-16T23:54:38.181Z,102197.66
2018-02-16T23:57:04.490Z,102195.34
2018-02-16T23:59:30.679Z,102199.94
